sensor_id;sensor_type;location;lat;lon;timestamp;temperature;humidity
7234;DHT22;3658;47.992;10.158;2023-06-26T00:00:08;24.00;49.90
7234;DHT22;3658;47.992;10.158;2023-06-26T00:02:36;24.00;49.90
7234;DHT22;3658;47.992;10.158;2023-06-26T00:05:04;24.00;49.90
7234;DHT22;3658;47.992;10.158;2023-06-26T00:07:32;24.00;49.90
7234;DHT22;3658;47.992;10.158;2023-06-26T00:10:00;24.00;49.90
7234;DHT22;3658;47.992;10.158;2023-06-26T00:12:28;24.00;49.90
7234;DHT22;3658;47.992;10.158;2023-06-26T00:14:56;24.00;49.90
7234;DHT22;3658;47.992;10.158;2023-06-26T00:17:23;24.00;50.50
7234;DHT22;3658;47.992;10.158;2023-06-26T00:19:50;24.00;49.90
7234;DHT22;3658;47.992;10.158;2023-06-26T00:22:17;24.00;49.90
7234;DHT22;3658;47.992;10.158;2023-06-26T00:24:44;24.00;49.90
7234;DHT22;3658;47.992;10.158;2023-06-26T00:27:11;24.00;49.80
7234;DHT22;3658;47.992;10.158;2023-06-26T00:29:38;24.00;49.80
7234;DHT22;3658;47.992;10.158;2023-06-26T00:32:06;24.00;49.90
7234;DHT22;3658;47.992;10.158;2023-06-26T00:34:33;24.00;49.90
7234;DHT22;3658;47.992;10.158;2023-06-26T00:37:00;24.00;49.90
7234;DHT22;3658;47.992;10.158;2023-06-26T00:39:27;24.00;49.80
7234;DHT22;3658;47.992;10.158;2023-06-26T00:41:53;24.00;49.90
7234;DHT22;3658;47.992;10.158;2023-06-26T00:44:20;24.00;49.80
7234;DHT22;3658;47.992;10.158;2023-06-26T00:46:47;24.00;49.90
7234;DHT22;3658;47.992;10.158;2023-06-26T00:49:15;24.00;49.80
7234;DHT22;3658;47.992;10.158;2023-06-26T00:51:43;24.00;49.80
7234;DHT22;3658;47.992;10.158;2023-06-26T00:54:10;24.00;49.80
7234;DHT22;3658;47.992;10.158;2023-06-26T00:56:37;24.00;49.80
7234;DHT22;3658;47.992;10.158;2023-06-26T00:59:05;24.00;49.80
7234;DHT22;3658;47.992;10.158;2023-06-26T01:01:32;24.00;49.80
7234;DHT22;3658;47.992;10.158;2023-06-26T01:03:59;24.00;49.80
7234;DHT22;3658;47.992;10.158;2023-06-26T01:06:28;24.00;49.70
7234;DHT22;3658;47.992;10.158;2023-06-26T01:08:57;24.00;49.80
7234;DHT22;3658;47.992;10.158;2023-06-26T01:11:24;24.00;49.80
7234;DHT22;3658;47.992;10.158;2023-06-26T01:13:51;24.00;49.70
7234;DHT22;3658;47.992;10.158;2023-06-26T01:16:20;24.00;49.80
7234;DHT22;3658;47.992;10.158;2023-06-26T01:18:47;24.00;49.80
7234;DHT22;3658;47.992;10.158;2023-06-26T01:21:15;24.00;49.80
7234;DHT22;3658;47.992;10.158;2023-06-26T01:23:56;24.00;49.70
7234;DHT22;3658;47.992;10.158;2023-06-26T01:26:27;24.00;49.70
7234;DHT22;3658;47.992;10.158;2023-06-26T01:28:57;24.00;49.70
7234;DHT22;3658;47.992;10.158;2023-06-26T01:31:26;24.00;49.70
7234;DHT22;3658;47.992;10.158;2023-06-26T01:33:53;24.00;49.70
7234;DHT22;3658;47.992;10.158;2023-06-26T01:36:22;24.00;49.70
7234;DHT22;3658;47.992;10.158;2023-06-26T01:38:49;24.00;49.70
7234;DHT22;3658;47.992;10.158;2023-06-26T01:41:17;24.00;49.70
7234;DHT22;3658;47.992;10.158;2023-06-26T01:43:57;24.00;49.70
7234;DHT22;3658;47.992;10.158;2023-06-26T01:46:35;24.00;50.40
7234;DHT22;3658;47.992;10.158;2023-06-26T01:49:08;24.00;49.70
7234;DHT22;3658;47.992;10.158;2023-06-26T01:51:39;24.00;49.70
7234;DHT22;3658;47.992;10.158;2023-06-26T01:54:11;24.00;49.70
7234;DHT22;3658;47.992;10.158;2023-06-26T01:56:40;24.00;49.70
7234;DHT22;3658;47.992;10.158;2023-06-26T01:59:10;24.00;49.70
7234;DHT22;3658;47.992;10.158;2023-06-26T02:01:39;24.00;49.70
7234;DHT22;3658;47.992;10.158;2023-06-26T02:04:06;24.00;49.70
7234;DHT22;3658;47.992;10.158;2023-06-26T02:06:33;24.00;49.70
7234;DHT22;3658;47.992;10.158;2023-06-26T02:08:59;24.00;49.70
7234;DHT22;3658;47.992;10.158;2023-06-26T02:11:26;24.00;49.70
7234;DHT22;3658;47.992;10.158;2023-06-26T02:13:53;24.00;49.70
7234;DHT22;3658;47.992;10.158;2023-06-26T02:16:21;24.00;49.70
7234;DHT22;3658;47.992;10.158;2023-06-26T02:18:48;24.00;49.70
7234;DHT22;3658;47.992;10.158;2023-06-26T02:21:15;24.00;49.70
7234;DHT22;3658;47.992;10.158;2023-06-26T02:23:42;24.00;49.70
7234;DHT22;3658;47.992;10.158;2023-06-26T02:26:09;24.00;49.70
7234;DHT22;3658;47.992;10.158;2023-06-26T02:28:36;24.00;49.70
7234;DHT22;3658;47.992;10.158;2023-06-26T02:31:03;24.00;49.70
7234;DHT22;3658;47.992;10.158;2023-06-26T02:33:31;24.00;49.70
7234;DHT22;3658;47.992;10.158;2023-06-26T02:35:58;24.00;49.70
7234;DHT22;3658;47.992;10.158;2023-06-26T02:38:25;24.00;49.70
7234;DHT22;3658;47.992;10.158;2023-06-26T02:40:52;24.00;49.70
7234;DHT22;3658;47.992;10.158;2023-06-26T02:43:18;24.00;49.70
7234;DHT22;3658;47.992;10.158;2023-06-26T02:45:45;24.00;49.60
7234;DHT22;3658;47.992;10.158;2023-06-26T02:48:12;24.00;49.60
7234;DHT22;3658;47.992;10.158;2023-06-26T02:50:40;24.00;49.70
7234;DHT22;3658;47.992;10.158;2023-06-26T02:53:07;24.00;49.60
7234;DHT22;3658;47.992;10.158;2023-06-26T02:55:34;24.00;49.60
7234;DHT22;3658;47.992;10.158;2023-06-26T02:58:01;24.00;49.70
7234;DHT22;3658;47.992;10.158;2023-06-26T03:00:28;24.00;49.70
7234;DHT22;3658;47.992;10.158;2023-06-26T03:02:55;24.00;49.60
7234;DHT22;3658;47.992;10.158;2023-06-26T03:05:22;24.00;49.60
7234;DHT22;3658;47.992;10.158;2023-06-26T03:07:51;24.00;49.60
7234;DHT22;3658;47.992;10.158;2023-06-26T03:10:17;24.00;49.70
7234;DHT22;3658;47.992;10.158;2023-06-26T03:12:44;24.00;49.70
7234;DHT22;3658;47.992;10.158;2023-06-26T03:15:11;24.00;49.60
7234;DHT22;3658;47.992;10.158;2023-06-26T03:17:39;24.00;49.60
7234;DHT22;3658;47.992;10.158;2023-06-26T03:20:07;24.00;49.60
7234;DHT22;3658;47.992;10.158;2023-06-26T03:22:34;24.00;49.60
7234;DHT22;3658;47.992;10.158;2023-06-26T03:25:03;24.00;49.60
7234;DHT22;3658;47.992;10.158;2023-06-26T03:27:31;24.00;49.60
7234;DHT22;3658;47.992;10.158;2023-06-26T03:29:58;24.00;49.60
7234;DHT22;3658;47.992;10.158;2023-06-26T03:32:24;24.00;49.60
7234;DHT22;3658;47.992;10.158;2023-06-26T03:34:51;24.00;49.60
7234;DHT22;3658;47.992;10.158;2023-06-26T03:37:19;24.00;49.60
7234;DHT22;3658;47.992;10.158;2023-06-26T03:39:46;24.00;49.50
7234;DHT22;3658;47.992;10.158;2023-06-26T03:42:14;24.00;49.60
7234;DHT22;3658;47.992;10.158;2023-06-26T03:44:41;24.00;49.50
7234;DHT22;3658;47.992;10.158;2023-06-26T03:47:08;24.00;49.50
7234;DHT22;3658;47.992;10.158;2023-06-26T03:49:35;24.00;49.50
7234;DHT22;3658;47.992;10.158;2023-06-26T03:52:02;24.00;49.50
7234;DHT22;3658;47.992;10.158;2023-06-26T03:54:28;24.00;49.50
7234;DHT22;3658;47.992;10.158;2023-06-26T03:56:55;24.00;49.50
7234;DHT22;3658;47.992;10.158;2023-06-26T03:59:23;24.00;49.50
7234;DHT22;3658;47.992;10.158;2023-06-26T04:01:50;24.00;49.50
7234;DHT22;3658;47.992;10.158;2023-06-26T04:04:17;24.00;49.50
7234;DHT22;3658;47.992;10.158;2023-06-26T04:06:43;24.00;49.60
7234;DHT22;3658;47.992;10.158;2023-06-26T04:09:10;24.00;49.50
7234;DHT22;3658;47.992;10.158;2023-06-26T04:11:37;24.00;49.50
7234;DHT22;3658;47.992;10.158;2023-06-26T04:14:04;24.00;49.50
7234;DHT22;3658;47.992;10.158;2023-06-26T04:16:32;24.00;49.50
7234;DHT22;3658;47.992;10.158;2023-06-26T04:18:59;24.00;49.50
7234;DHT22;3658;47.992;10.158;2023-06-26T04:21:26;24.00;49.50
7234;DHT22;3658;47.992;10.158;2023-06-26T04:23:53;24.00;50.20
7234;DHT22;3658;47.992;10.158;2023-06-26T04:26:20;24.00;49.50
7234;DHT22;3658;47.992;10.158;2023-06-26T04:28:46;24.00;49.50
7234;DHT22;3658;47.992;10.158;2023-06-26T04:31:13;24.00;49.50
7234;DHT22;3658;47.992;10.158;2023-06-26T04:33:41;24.00;49.50
7234;DHT22;3658;47.992;10.158;2023-06-26T04:36:08;24.00;49.50
7234;DHT22;3658;47.992;10.158;2023-06-26T04:38:36;24.00;49.50
7234;DHT22;3658;47.992;10.158;2023-06-26T04:41:03;24.00;49.50
7234;DHT22;3658;47.992;10.158;2023-06-26T04:43:30;24.00;49.50
7234;DHT22;3658;47.992;10.158;2023-06-26T04:45:57;24.00;49.50
7234;DHT22;3658;47.992;10.158;2023-06-26T04:48:23;24.00;49.50
7234;DHT22;3658;47.992;10.158;2023-06-26T04:50:54;24.00;49.50
7234;DHT22;3658;47.992;10.158;2023-06-26T04:53:21;24.00;49.50
7234;DHT22;3658;47.992;10.158;2023-06-26T04:55:49;24.00;49.50
7234;DHT22;3658;47.992;10.158;2023-06-26T04:58:16;24.00;49.50
7234;DHT22;3658;47.992;10.158;2023-06-26T05:00:43;24.00;49.50
7234;DHT22;3658;47.992;10.158;2023-06-26T05:03:09;24.00;49.50
7234;DHT22;3658;47.992;10.158;2023-06-26T05:05:36;24.00;49.50
7234;DHT22;3658;47.992;10.158;2023-06-26T05:08:20;24.00;49.50
7234;DHT22;3658;47.992;10.158;2023-06-26T05:10:47;24.00;49.50
7234;DHT22;3658;47.992;10.158;2023-06-26T05:13:14;24.00;49.50
7234;DHT22;3658;47.992;10.158;2023-06-26T05:15:43;24.00;49.50
7234;DHT22;3658;47.992;10.158;2023-06-26T05:18:10;24.00;49.50
7234;DHT22;3658;47.992;10.158;2023-06-26T05:20:37;24.00;49.50
7234;DHT22;3658;47.992;10.158;2023-06-26T05:23:05;24.00;49.50
7234;DHT22;3658;47.992;10.158;2023-06-26T05:25:33;24.00;49.50
7234;DHT22;3658;47.992;10.158;2023-06-26T05:28:01;24.00;49.40
7234;DHT22;3658;47.992;10.158;2023-06-26T05:30:31;24.00;49.50
7234;DHT22;3658;47.992;10.158;2023-06-26T05:33:00;24.00;49.50
7234;DHT22;3658;47.992;10.158;2023-06-26T05:35:28;24.00;49.50
7234;DHT22;3658;47.992;10.158;2023-06-26T05:37:56;24.00;49.50
7234;DHT22;3658;47.992;10.158;2023-06-26T05:40:23;24.00;49.50
7234;DHT22;3658;47.992;10.158;2023-06-26T05:42:52;24.00;49.30
7234;DHT22;3658;47.992;10.158;2023-06-26T05:45:19;24.00;48.70
7234;DHT22;3658;47.992;10.158;2023-06-26T05:47:46;24.00;48.80
7234;DHT22;3658;47.992;10.158;2023-06-26T05:50:14;23.90;48.60
7234;DHT22;3658;47.992;10.158;2023-06-26T05:52:41;23.90;48.50
7234;DHT22;3658;47.992;10.158;2023-06-26T05:55:10;23.90;48.80
7234;DHT22;3658;47.992;10.158;2023-06-26T05:57:38;23.90;48.60
7234;DHT22;3658;47.992;10.158;2023-06-26T06:00:09;23.90;48.70
7234;DHT22;3658;47.992;10.158;2023-06-26T06:02:36;23.90;48.80
7234;DHT22;3658;47.992;10.158;2023-06-26T06:05:04;23.90;48.70
7234;DHT22;3658;47.992;10.158;2023-06-26T06:07:31;23.90;49.40
7234;DHT22;3658;47.992;10.158;2023-06-26T06:09:58;24.00;50.20
7234;DHT22;3658;47.992;10.158;2023-06-26T06:12:25;24.00;51.00
7234;DHT22;3658;47.992;10.158;2023-06-26T06:14:52;24.00;51.40
7234;DHT22;3658;47.992;10.158;2023-06-26T06:17:21;24.00;51.60
7234;DHT22;3658;47.992;10.158;2023-06-26T06:19:47;24.10;51.80
7234;DHT22;3658;47.992;10.158;2023-06-26T06:22:14;24.10;51.00
7234;DHT22;3658;47.992;10.158;2023-06-26T06:24:42;24.00;50.20
7234;DHT22;3658;47.992;10.158;2023-06-26T06:27:09;24.00;50.40
7234;DHT22;3658;47.992;10.158;2023-06-26T06:29:36;24.00;50.20
7234;DHT22;3658;47.992;10.158;2023-06-26T06:32:03;24.00;50.30
7234;DHT22;3658;47.992;10.158;2023-06-26T06:34:32;24.00;50.20
7234;DHT22;3658;47.992;10.158;2023-06-26T06:36:58;24.00;50.20
7234;DHT22;3658;47.992;10.158;2023-06-26T06:39:25;24.00;50.20
7234;DHT22;3658;47.992;10.158;2023-06-26T06:41:52;24.00;50.10
7234;DHT22;3658;47.992;10.158;2023-06-26T06:44:19;24.00;50.20
7234;DHT22;3658;47.992;10.158;2023-06-26T06:46:46;24.00;50.20
7234;DHT22;3658;47.992;10.158;2023-06-26T06:49:12;24.00;50.20
7234;DHT22;3658;47.992;10.158;2023-06-26T06:51:41;24.00;50.20
7234;DHT22;3658;47.992;10.158;2023-06-26T06:54:07;24.00;50.20
7234;DHT22;3658;47.992;10.158;2023-06-26T06:56:34;24.00;50.20
7234;DHT22;3658;47.992;10.158;2023-06-26T06:59:01;24.10;50.50
7234;DHT22;3658;47.992;10.158;2023-06-26T07:01:28;24.10;50.60
7234;DHT22;3658;47.992;10.158;2023-06-26T07:03:55;24.10;50.30
7234;DHT22;3658;47.992;10.158;2023-06-26T07:06:22;24.10;50.90
7234;DHT22;3658;47.992;10.158;2023-06-26T07:08:50;24.10;51.10
7234;DHT22;3658;47.992;10.158;2023-06-26T07:11:17;24.10;51.20
7234;DHT22;3658;47.992;10.158;2023-06-26T07:13:44;24.10;51.60
7234;DHT22;3658;47.992;10.158;2023-06-26T07:16:11;24.10;51.40
7234;DHT22;3658;47.992;10.158;2023-06-26T07:18:38;24.10;51.50
7234;DHT22;3658;47.992;10.158;2023-06-26T07:21:05;24.10;51.50
7234;DHT22;3658;47.992;10.158;2023-06-26T07:23:32;24.10;51.40
7234;DHT22;3658;47.992;10.158;2023-06-26T07:26:00;24.10;51.20
7234;DHT22;3658;47.992;10.158;2023-06-26T07:28:27;24.10;51.00
7234;DHT22;3658;47.992;10.158;2023-06-26T07:30:54;24.10;51.20
7234;DHT22;3658;47.992;10.158;2023-06-26T07:33:20;24.10;51.30
7234;DHT22;3658;47.992;10.158;2023-06-26T07:35:47;24.10;51.20
7234;DHT22;3658;47.992;10.158;2023-06-26T07:38:14;24.10;51.10
7234;DHT22;3658;47.992;10.158;2023-06-26T07:40:41;24.10;51.00
7234;DHT22;3658;47.992;10.158;2023-06-26T07:43:09;24.10;50.90
7234;DHT22;3658;47.992;10.158;2023-06-26T07:45:35;24.10;50.90
7234;DHT22;3658;47.992;10.158;2023-06-26T07:48:03;24.10;50.90
7234;DHT22;3658;47.992;10.158;2023-06-26T07:50:30;24.10;50.90
7234;DHT22;3658;47.992;10.158;2023-06-26T07:52:56;24.20;50.90
7234;DHT22;3658;47.992;10.158;2023-06-26T07:55:23;24.20;50.90
7234;DHT22;3658;47.992;10.158;2023-06-26T07:57:51;24.20;50.50
7234;DHT22;3658;47.992;10.158;2023-06-26T08:00:20;24.10;50.70
7234;DHT22;3658;47.992;10.158;2023-06-26T08:02:47;24.20;50.80
7234;DHT22;3658;47.992;10.158;2023-06-26T08:05:14;24.20;50.90
7234;DHT22;3658;47.992;10.158;2023-06-26T08:07:41;24.20;51.00
7234;DHT22;3658;47.992;10.158;2023-06-26T08:10:08;24.20;51.10
7234;DHT22;3658;47.992;10.158;2023-06-26T08:12:35;24.20;51.00
7234;DHT22;3658;47.992;10.158;2023-06-26T08:15:06;24.20;51.00
7234;DHT22;3658;47.992;10.158;2023-06-26T08:17:34;24.20;50.90
7234;DHT22;3658;47.992;10.158;2023-06-26T08:20:02;24.20;50.90
7234;DHT22;3658;47.992;10.158;2023-06-26T08:22:29;24.20;51.00
7234;DHT22;3658;47.992;10.158;2023-06-26T08:24:56;24.20;51.00
7234;DHT22;3658;47.992;10.158;2023-06-26T08:27:22;24.20;51.00
7234;DHT22;3658;47.992;10.158;2023-06-26T08:29:49;24.20;51.20
7234;DHT22;3658;47.992;10.158;2023-06-26T08:32:16;24.20;51.20
7234;DHT22;3658;47.992;10.158;2023-06-26T08:34:44;24.20;51.50
7234;DHT22;3658;47.992;10.158;2023-06-26T08:37:11;24.20;51.40
7234;DHT22;3658;47.992;10.158;2023-06-26T08:39:38;24.20;51.80
7234;DHT22;3658;47.992;10.158;2023-06-26T08:42:05;24.20;51.10
7234;DHT22;3658;47.992;10.158;2023-06-26T08:44:32;24.20;51.00
7234;DHT22;3658;47.992;10.158;2023-06-26T08:46:59;24.20;50.90
7234;DHT22;3658;47.992;10.158;2023-06-26T08:49:31;24.20;50.70
7234;DHT22;3658;47.992;10.158;2023-06-26T08:52:17;24.20;50.90
7234;DHT22;3658;47.992;10.158;2023-06-26T08:54:46;24.20;51.00
7234;DHT22;3658;47.992;10.158;2023-06-26T08:57:18;24.20;51.50
7234;DHT22;3658;47.992;10.158;2023-06-26T08:59:46;24.20;51.10
7234;DHT22;3658;47.992;10.158;2023-06-26T09:02:14;24.20;51.60
7234;DHT22;3658;47.992;10.158;2023-06-26T09:04:41;24.20;51.90
7234;DHT22;3658;47.992;10.158;2023-06-26T09:07:09;24.30;52.30
7234;DHT22;3658;47.992;10.158;2023-06-26T09:09:36;24.30;52.40
7234;DHT22;3658;47.992;10.158;2023-06-26T09:12:03;24.30;52.70
7234;DHT22;3658;47.992;10.158;2023-06-26T09:14:30;24.30;52.70
7234;DHT22;3658;47.992;10.158;2023-06-26T09:16:57;24.30;52.70
7234;DHT22;3658;47.992;10.158;2023-06-26T09:19:24;24.30;53.40
7234;DHT22;3658;47.992;10.158;2023-06-26T09:21:51;24.30;52.80
7234;DHT22;3658;47.992;10.158;2023-06-26T09:24:19;24.30;52.80
7234;DHT22;3658;47.992;10.158;2023-06-26T09:26:46;24.30;52.90
7234;DHT22;3658;47.992;10.158;2023-06-26T09:29:13;24.30;52.90
7234;DHT22;3658;47.992;10.158;2023-06-26T09:31:40;24.30;52.80
7234;DHT22;3658;47.992;10.158;2023-06-26T09:34:08;24.30;52.80
7234;DHT22;3658;47.992;10.158;2023-06-26T09:36:35;24.30;52.70
7234;DHT22;3658;47.992;10.158;2023-06-26T09:39:04;24.30;52.70
7234;DHT22;3658;47.992;10.158;2023-06-26T09:41:35;24.30;52.50
7234;DHT22;3658;47.992;10.158;2023-06-26T09:44:04;24.30;52.50
7234;DHT22;3658;47.992;10.158;2023-06-26T09:46:31;24.30;52.40
7234;DHT22;3658;47.992;10.158;2023-06-26T09:49:00;24.30;52.30
7234;DHT22;3658;47.992;10.158;2023-06-26T09:51:29;24.30;52.20
7234;DHT22;3658;47.992;10.158;2023-06-26T09:53:56;24.30;52.30
7234;DHT22;3658;47.992;10.158;2023-06-26T09:56:24;24.30;52.60
7234;DHT22;3658;47.992;10.158;2023-06-26T09:58:52;24.30;52.60
7234;DHT22;3658;47.992;10.158;2023-06-26T10:01:21;24.30;52.90
7234;DHT22;3658;47.992;10.158;2023-06-26T10:03:48;24.30;52.90
7234;DHT22;3658;47.992;10.158;2023-06-26T10:06:19;24.30;53.20
7234;DHT22;3658;47.992;10.158;2023-06-26T10:08:46;24.30;52.90
7234;DHT22;3658;47.992;10.158;2023-06-26T10:11:16;24.30;52.30
7234;DHT22;3658;47.992;10.158;2023-06-26T10:13:48;24.30;52.00
7234;DHT22;3658;47.992;10.158;2023-06-26T10:16:22;24.30;52.70
7234;DHT22;3658;47.992;10.158;2023-06-26T10:18:51;24.30;53.00
7234;DHT22;3658;47.992;10.158;2023-06-26T10:21:20;24.40;53.20
7234;DHT22;3658;47.992;10.158;2023-06-26T10:23:51;24.40;53.30
7234;DHT22;3658;47.992;10.158;2023-06-26T10:26:20;24.40;53.10
7234;DHT22;3658;47.992;10.158;2023-06-26T10:28:48;24.40;53.20
7234;DHT22;3658;47.992;10.158;2023-06-26T10:31:20;24.40;53.30
7234;DHT22;3658;47.992;10.158;2023-06-26T10:33:48;24.40;53.20
7234;DHT22;3658;47.992;10.158;2023-06-26T10:36:16;24.40;52.60
7234;DHT22;3658;47.992;10.158;2023-06-26T10:38:51;24.40;51.70
7234;DHT22;3658;47.992;10.158;2023-06-26T10:41:22;24.40;51.40
7234;DHT22;3658;47.992;10.158;2023-06-26T10:43:50;24.40;51.00
7234;DHT22;3658;47.992;10.158;2023-06-26T10:46:19;24.40;50.80
7234;DHT22;3658;47.992;10.158;2023-06-26T10:49:05;24.40;50.90
7234;DHT22;3658;47.992;10.158;2023-06-26T10:51:46;24.40;50.80
7234;DHT22;3658;47.992;10.158;2023-06-26T10:54:14;24.40;51.30
7234;DHT22;3658;47.992;10.158;2023-06-26T10:56:42;24.40;50.70
7234;DHT22;3658;47.992;10.158;2023-06-26T10:59:17;24.40;50.60
7234;DHT22;3658;47.992;10.158;2023-06-26T11:01:46;24.40;50.70
7234;DHT22;3658;47.992;10.158;2023-06-26T11:04:36;24.40;50.60
7234;DHT22;3658;47.992;10.158;2023-06-26T11:07:16;24.40;52.40
7234;DHT22;3658;47.992;10.158;2023-06-26T11:10:00;24.40;51.90
7234;DHT22;3658;47.992;10.158;2023-06-26T11:12:41;24.40;51.60
7234;DHT22;3658;47.992;10.158;2023-06-26T11:15:08;24.40;51.10
7234;DHT22;3658;47.992;10.158;2023-06-26T11:17:37;24.40;50.70
7234;DHT22;3658;47.992;10.158;2023-06-26T11:20:05;24.40;50.70
7234;DHT22;3658;47.992;10.158;2023-06-26T11:22:39;24.40;50.90
7234;DHT22;3658;47.992;10.158;2023-06-26T11:25:11;24.40;50.80
7234;DHT22;3658;47.992;10.158;2023-06-26T11:27:39;24.40;50.50
7234;DHT22;3658;47.992;10.158;2023-06-26T11:30:07;24.40;50.40
7234;DHT22;3658;47.992;10.158;2023-06-26T11:32:47;24.40;50.10
7234;DHT22;3658;47.992;10.158;2023-06-26T11:35:22;24.40;51.80
7234;DHT22;3658;47.992;10.158;2023-06-26T11:37:55;24.40;53.30
7234;DHT22;3658;47.992;10.158;2023-06-26T11:40:23;24.50;54.10
7234;DHT22;3658;47.992;10.158;2023-06-26T11:42:52;24.50;54.30
7234;DHT22;3658;47.992;10.158;2023-06-26T11:45:19;24.50;54.50
7234;DHT22;3658;47.992;10.158;2023-06-26T11:47:48;24.50;54.50
7234;DHT22;3658;47.992;10.158;2023-06-26T11:50:16;24.50;54.40
7234;DHT22;3658;47.992;10.158;2023-06-26T11:52:43;24.50;54.30
7234;DHT22;3658;47.992;10.158;2023-06-26T11:55:10;24.50;54.20
7234;DHT22;3658;47.992;10.158;2023-06-26T11:57:37;24.50;54.00
7234;DHT22;3658;47.992;10.158;2023-06-26T12:00:11;24.50;53.80
7234;DHT22;3658;47.992;10.158;2023-06-26T12:02:38;24.50;53.60
7234;DHT22;3658;47.992;10.158;2023-06-26T12:05:07;24.50;53.50
7234;DHT22;3658;47.992;10.158;2023-06-26T12:07:34;24.50;53.30
7234;DHT22;3658;47.992;10.158;2023-06-26T12:10:03;24.50;53.20
7234;DHT22;3658;47.992;10.158;2023-06-26T12:12:31;24.50;53.30
7234;DHT22;3658;47.992;10.158;2023-06-26T12:14:58;24.50;53.20
7234;DHT22;3658;47.992;10.158;2023-06-26T12:17:26;24.50;53.30
7234;DHT22;3658;47.992;10.158;2023-06-26T12:19:53;24.60;53.40
7234;DHT22;3658;47.992;10.158;2023-06-26T12:22:21;24.60;53.30
7234;DHT22;3658;47.992;10.158;2023-06-26T12:24:48;24.60;53.20
7234;DHT22;3658;47.992;10.158;2023-06-26T12:27:17;24.50;53.20
7234;DHT22;3658;47.992;10.158;2023-06-26T12:29:49;24.50;53.30
7234;DHT22;3658;47.992;10.158;2023-06-26T12:32:16;24.60;53.30
7234;DHT22;3658;47.992;10.158;2023-06-26T12:34:47;24.50;53.30
7234;DHT22;3658;47.992;10.158;2023-06-26T12:37:15;24.60;54.10
7234;DHT22;3658;47.992;10.158;2023-06-26T12:39:48;24.50;53.40
7234;DHT22;3658;47.992;10.158;2023-06-26T12:42:17;24.50;53.40
7234;DHT22;3658;47.992;10.158;2023-06-26T12:44:44;24.60;53.50
7234;DHT22;3658;47.992;10.158;2023-06-26T12:47:11;24.60;53.50
7234;DHT22;3658;47.992;10.158;2023-06-26T12:49:40;24.60;53.60
7234;DHT22;3658;47.992;10.158;2023-06-26T12:52:09;24.60;53.60
7234;DHT22;3658;47.992;10.158;2023-06-26T12:54:38;24.60;53.60
7234;DHT22;3658;47.992;10.158;2023-06-26T12:57:07;24.60;53.50
7234;DHT22;3658;47.992;10.158;2023-06-26T12:59:35;24.60;53.20
7234;DHT22;3658;47.992;10.158;2023-06-26T13:02:03;24.60;53.30
7234;DHT22;3658;47.992;10.158;2023-06-26T13:04:30;24.60;53.70
7234;DHT22;3658;47.992;10.158;2023-06-26T13:06:57;24.60;53.70
7234;DHT22;3658;47.992;10.158;2023-06-26T13:09:24;24.60;53.70
7234;DHT22;3658;47.992;10.158;2023-06-26T13:11:52;24.60;53.60
7234;DHT22;3658;47.992;10.158;2023-06-26T13:14:20;24.60;53.50
7234;DHT22;3658;47.992;10.158;2023-06-26T13:16:47;24.60;53.30
7234;DHT22;3658;47.992;10.158;2023-06-26T13:19:14;24.50;52.90
7234;DHT22;3658;47.992;10.158;2023-06-26T13:21:41;24.60;53.10
7234;DHT22;3658;47.992;10.158;2023-06-26T13:24:08;24.60;53.20
7234;DHT22;3658;47.992;10.158;2023-06-26T13:26:38;24.60;53.30
7234;DHT22;3658;47.992;10.158;2023-06-26T13:29:04;24.60;53.30
7234;DHT22;3658;47.992;10.158;2023-06-26T13:31:33;24.60;52.80
7234;DHT22;3658;47.992;10.158;2023-06-26T13:34:04;24.60;53.00
7234;DHT22;3658;47.992;10.158;2023-06-26T13:36:37;24.50;53.30
7234;DHT22;3658;47.992;10.158;2023-06-26T13:39:04;24.60;53.70
7234;DHT22;3658;47.992;10.158;2023-06-26T13:41:32;24.60;53.70
7234;DHT22;3658;47.992;10.158;2023-06-26T13:43:59;24.60;53.70
7234;DHT22;3658;47.992;10.158;2023-06-26T13:46:26;24.60;53.30
7234;DHT22;3658;47.992;10.158;2023-06-26T13:48:54;24.60;54.00
7234;DHT22;3658;47.992;10.158;2023-06-26T13:51:21;24.60;54.40
7234;DHT22;3658;47.992;10.158;2023-06-26T13:53:48;24.60;54.50
7234;DHT22;3658;47.992;10.158;2023-06-26T13:56:15;24.60;54.60
7234;DHT22;3658;47.992;10.158;2023-06-26T13:58:42;24.60;54.60
7234;DHT22;3658;47.992;10.158;2023-06-26T14:01:08;24.60;54.40
7234;DHT22;3658;47.992;10.158;2023-06-26T14:03:35;24.60;54.10
7234;DHT22;3658;47.992;10.158;2023-06-26T14:06:04;24.60;54.00
7234;DHT22;3658;47.992;10.158;2023-06-26T14:08:30;24.60;54.10
7234;DHT22;3658;47.992;10.158;2023-06-26T14:10:57;24.60;54.10
7234;DHT22;3658;47.992;10.158;2023-06-26T14:13:25;24.60;54.20
7234;DHT22;3658;47.992;10.158;2023-06-26T14:15:52;24.60;54.10
7234;DHT22;3658;47.992;10.158;2023-06-26T14:18:19;24.60;54.30
7234;DHT22;3658;47.992;10.158;2023-06-26T14:20:46;24.60;54.30
7234;DHT22;3658;47.992;10.158;2023-06-26T14:23:14;24.60;54.40
7234;DHT22;3658;47.992;10.158;2023-06-26T14:25:41;24.60;54.40
7234;DHT22;3658;47.992;10.158;2023-06-26T14:28:08;24.60;54.40
7234;DHT22;3658;47.992;10.158;2023-06-26T14:30:35;24.60;54.20
7234;DHT22;3658;47.992;10.158;2023-06-26T14:33:02;24.60;54.30
7234;DHT22;3658;47.992;10.158;2023-06-26T14:35:29;24.60;54.30
7234;DHT22;3658;47.992;10.158;2023-06-26T14:37:55;24.60;54.50
7234;DHT22;3658;47.992;10.158;2023-06-26T14:40:23;24.60;54.70
7234;DHT22;3658;47.992;10.158;2023-06-26T14:42:50;24.70;54.90
7234;DHT22;3658;47.992;10.158;2023-06-26T14:45:18;24.60;54.70
7234;DHT22;3658;47.992;10.158;2023-06-26T14:47:45;24.60;54.40
7234;DHT22;3658;47.992;10.158;2023-06-26T14:50:12;24.70;54.30
7234;DHT22;3658;47.992;10.158;2023-06-26T14:52:38;24.70;54.30
7234;DHT22;3658;47.992;10.158;2023-06-26T14:55:06;24.70;54.20
7234;DHT22;3658;47.992;10.158;2023-06-26T14:57:34;24.60;54.30
7234;DHT22;3658;47.992;10.158;2023-06-26T15:00:01;24.70;55.00
7234;DHT22;3658;47.992;10.158;2023-06-26T15:02:28;24.70;55.30
7234;DHT22;3658;47.992;10.158;2023-06-26T15:04:55;24.70;55.30
7234;DHT22;3658;47.992;10.158;2023-06-26T15:07:22;24.70;55.50
7234;DHT22;3658;47.992;10.158;2023-06-26T15:09:49;24.70;55.30
7234;DHT22;3658;47.992;10.158;2023-06-26T15:12:15;24.70;55.20
7234;DHT22;3658;47.992;10.158;2023-06-26T15:14:44;24.70;55.30
7234;DHT22;3658;47.992;10.158;2023-06-26T15:17:10;24.70;55.10
7234;DHT22;3658;47.992;10.158;2023-06-26T15:19:37;24.70;55.20
7234;DHT22;3658;47.992;10.158;2023-06-26T15:22:04;24.70;55.40
7234;DHT22;3658;47.992;10.158;2023-06-26T15:24:31;24.70;55.40
7234;DHT22;3658;47.992;10.158;2023-06-26T15:26:58;24.70;55.10
7234;DHT22;3658;47.992;10.158;2023-06-26T15:29:25;24.70;54.90
7234;DHT22;3658;47.992;10.158;2023-06-26T15:31:53;24.70;54.70
7234;DHT22;3658;47.992;10.158;2023-06-26T15:34:20;24.70;54.50
7234;DHT22;3658;47.992;10.158;2023-06-26T15:36:47;24.70;54.50
7234;DHT22;3658;47.992;10.158;2023-06-26T15:39:15;24.70;54.10
7234;DHT22;3658;47.992;10.158;2023-06-26T15:41:42;24.70;54.40
7234;DHT22;3658;47.992;10.158;2023-06-26T15:44:09;24.70;54.50
7234;DHT22;3658;47.992;10.158;2023-06-26T15:46:36;24.70;54.50
7234;DHT22;3658;47.992;10.158;2023-06-26T15:49:04;24.70;54.50